sensor_id;sensor_type;location;lat;lon;timestamp;P1;durP1;ratioP1;P2;durP2;ratioP2
75419;SDS011;63998;52.488;13.428;2023-08-17T00:01:44;3.42;;;2.53;;
75419;SDS011;63998;52.488;13.428;2023-08-17T00:04:09;4.20;;;2.50;;
75419;SDS011;63998;52.488;13.428;2023-08-17T00:06:35;3.72;;;2.60;;
75419;SDS011;63998;52.488;13.428;2023-08-17T00:09:00;4.35;;;3.00;;
75419;SDS011;63998;52.488;13.428;2023-08-17T00:11:26;4.15;;;3.03;;
75419;SDS011;63998;52.488;13.428;2023-08-17T00:13:51;6.28;;;3.33;;
75419;SDS011;63998;52.488;13.428;2023-08-17T00:16:17;3.38;;;2.92;;
75419;SDS011;63998;52.488;13.428;2023-08-17T00:18:42;4.80;;;3.05;;
75419;SDS011;63998;52.488;13.428;2023-08-17T00:21:08;5.87;;;3.60;;
75419;SDS011;63998;52.488;13.428;2023-08-17T00:23:33;5.00;;;3.03;;
75419;SDS011;63998;52.488;13.428;2023-08-17T00:25:59;4.18;;;3.17;;
75419;SDS011;63998;52.488;13.428;2023-08-17T00:28:24;5.50;;;3.22;;
75419;SDS011;63998;52.488;13.428;2023-08-17T00:30:50;4.27;;;2.77;;
75419;SDS011;63998;52.488;13.428;2023-08-17T00:33:16;5.72;;;2.70;;
75419;SDS011;63998;52.488;13.428;2023-08-17T00:35:42;3.28;;;2.78;;
75419;SDS011;63998;52.488;13.428;2023-08-17T00:38:07;4.57;;;2.50;;
75419;SDS011;63998;52.488;13.428;2023-08-17T00:40:33;5.15;;;2.75;;
75419;SDS011;63998;52.488;13.428;2023-08-17T00:42:59;3.47;;;2.55;;
75419;SDS011;63998;52.488;13.428;2023-08-17T00:45:24;3.10;;;2.63;;
75419;SDS011;63998;52.488;13.428;2023-08-17T00:47:51;3.65;;;2.60;;
75419;SDS011;63998;52.488;13.428;2023-08-17T00:50:19;3.70;;;2.83;;
75419;SDS011;63998;52.488;13.428;2023-08-17T00:52:45;3.45;;;2.40;;
75419;SDS011;63998;52.488;13.428;2023-08-17T00:55:10;2.97;;;2.17;;
75419;SDS011;63998;52.488;13.428;2023-08-17T00:57:36;4.45;;;2.90;;
75419;SDS011;63998;52.488;13.428;2023-08-17T01:00:02;3.45;;;2.60;;
75419;SDS011;63998;52.488;13.428;2023-08-17T01:02:29;3.80;;;2.67;;
75419;SDS011;63998;52.488;13.428;2023-08-17T01:04:55;4.50;;;2.63;;
75419;SDS011;63998;52.488;13.428;2023-08-17T01:07:21;4.25;;;2.60;;
75419;SDS011;63998;52.488;13.428;2023-08-17T01:09:46;3.45;;;2.45;;
75419;SDS011;63998;52.488;13.428;2023-08-17T01:12:31;4.47;;;2.85;;
75419;SDS011;63998;52.488;13.428;2023-08-17T01:15:11;3.88;;;2.50;;
75419;SDS011;63998;52.488;13.428;2023-08-17T01:17:44;3.22;;;2.53;;
75419;SDS011;63998;52.488;13.428;2023-08-17T01:20:17;3.17;;;2.42;;
75419;SDS011;63998;52.488;13.428;2023-08-17T01:22:45;5.88;;;2.85;;
75419;SDS011;63998;52.488;13.428;2023-08-17T01:25:12;3.20;;;2.33;;
75419;SDS011;63998;52.488;13.428;2023-08-17T01:27:41;4.80;;;2.40;;
75419;SDS011;63998;52.488;13.428;2023-08-17T01:30:08;4.28;;;2.72;;
75419;SDS011;63998;52.488;13.428;2023-08-17T01:35:27;3.90;;;2.78;;
75419;SDS011;63998;52.488;13.428;2023-08-17T01:37:59;2.90;;;2.53;;
75419;SDS011;63998;52.488;13.428;2023-08-17T01:40:31;4.72;;;2.63;;
75419;SDS011;63998;52.488;13.428;2023-08-17T01:42:58;4.72;;;2.70;;
75419;SDS011;63998;52.488;13.428;2023-08-17T01:45:24;5.38;;;2.72;;
75419;SDS011;63998;52.488;13.428;2023-08-17T01:47:50;3.05;;;2.75;;
75419;SDS011;63998;52.488;13.428;2023-08-17T01:50:15;5.07;;;2.72;;
75419;SDS011;63998;52.488;13.428;2023-08-17T01:52:41;3.40;;;2.43;;
75419;SDS011;63998;52.488;13.428;2023-08-17T01:55:06;5.07;;;2.35;;
75419;SDS011;63998;52.488;13.428;2023-08-17T01:57:33;3.78;;;2.58;;
75419;SDS011;63998;52.488;13.428;2023-08-17T01:59:59;4.10;;;3.03;;
75419;SDS011;63998;52.488;13.428;2023-08-17T02:02:25;3.78;;;2.50;;
75419;SDS011;63998;52.488;13.428;2023-08-17T02:04:50;4.47;;;2.50;;
75419;SDS011;63998;52.488;13.428;2023-08-17T02:07:16;4.13;;;2.50;;
75419;SDS011;63998;52.488;13.428;2023-08-17T02:09:41;4.85;;;2.75;;
75419;SDS011;63998;52.488;13.428;2023-08-17T02:12:06;4.35;;;2.45;;
75419;SDS011;63998;52.488;13.428;2023-08-17T02:14:33;5.38;;;2.72;;
75419;SDS011;63998;52.488;13.428;2023-08-17T02:16:58;4.75;;;2.50;;
75419;SDS011;63998;52.488;13.428;2023-08-17T02:19:23;3.27;;;2.43;;
75419;SDS011;63998;52.488;13.428;2023-08-17T02:21:49;4.30;;;3.40;;
75419;SDS011;63998;52.488;13.428;2023-08-17T02:24:14;8.93;;;5.07;;
75419;SDS011;63998;52.488;13.428;2023-08-17T02:26:39;7.53;;;4.72;;
75419;SDS011;63998;52.488;13.428;2023-08-17T02:29:05;6.57;;;3.50;;
75419;SDS011;63998;52.488;13.428;2023-08-17T02:31:30;4.82;;;2.80;;
75419;SDS011;63998;52.488;13.428;2023-08-17T02:33:56;3.78;;;2.58;;
75419;SDS011;63998;52.488;13.428;2023-08-17T02:36:25;6.80;;;3.40;;
75419;SDS011;63998;52.488;13.428;2023-08-17T02:38:51;3.30;;;2.72;;
75419;SDS011;63998;52.488;13.428;2023-08-17T02:41:17;3.57;;;2.80;;
75419;SDS011;63998;52.488;13.428;2023-08-17T02:43:42;4.93;;;2.80;;
75419;SDS011;63998;52.488;13.428;2023-08-17T02:46:07;3.77;;;2.60;;
75419;SDS011;63998;52.488;13.428;2023-08-17T02:48:33;3.23;;;2.93;;
75419;SDS011;63998;52.488;13.428;2023-08-17T02:50:58;4.95;;;2.85;;
75419;SDS011;63998;52.488;13.428;2023-08-17T02:53:23;3.65;;;2.60;;
75419;SDS011;63998;52.488;13.428;2023-08-17T02:55:49;3.65;;;2.40;;
75419;SDS011;63998;52.488;13.428;2023-08-17T02:58:14;3.20;;;2.90;;
75419;SDS011;63998;52.488;13.428;2023-08-17T03:00:40;3.50;;;2.47;;
75419;SDS011;63998;52.488;13.428;2023-08-17T03:03:05;5.17;;;2.60;;
75419;SDS011;63998;52.488;13.428;2023-08-17T03:05:30;4.10;;;3.00;;
75419;SDS011;63998;52.488;13.428;2023-08-17T03:07:55;6.13;;;2.50;;
75419;SDS011;63998;52.488;13.428;2023-08-17T03:10:21;4.00;;;2.80;;
75419;SDS011;63998;52.488;13.428;2023-08-17T03:12:47;5.68;;;2.47;;
75419;SDS011;63998;52.488;13.428;2023-08-17T03:15:13;7.07;;;3.00;;
75419;SDS011;63998;52.488;13.428;2023-08-17T03:17:38;3.15;;;2.45;;
75419;SDS011;63998;52.488;13.428;2023-08-17T03:20:03;3.65;;;2.20;;
75419;SDS011;63998;52.488;13.428;2023-08-17T03:22:31;3.50;;;2.55;;
75419;SDS011;63998;52.488;13.428;2023-08-17T03:24:57;3.42;;;2.47;;
75419;SDS011;63998;52.488;13.428;2023-08-17T03:27:22;3.13;;;2.33;;
75419;SDS011;63998;52.488;13.428;2023-08-17T03:29:49;5.32;;;2.80;;
75419;SDS011;63998;52.488;13.428;2023-08-17T03:32:14;3.55;;;2.58;;
75419;SDS011;63998;52.488;13.428;2023-08-17T03:34:40;4.03;;;2.70;;
75419;SDS011;63998;52.488;13.428;2023-08-17T03:37:05;3.83;;;2.30;;
75419;SDS011;63998;52.488;13.428;2023-08-17T03:39:30;4.60;;;2.40;;
75419;SDS011;63998;52.488;13.428;2023-08-17T03:41:56;6.63;;;2.30;;
75419;SDS011;63998;52.488;13.428;2023-08-17T03:44:21;3.73;;;2.63;;
75419;SDS011;63998;52.488;13.428;2023-08-17T03:46:46;4.68;;;2.28;;
75419;SDS011;63998;52.488;13.428;2023-08-17T03:49:12;4.10;;;2.33;;
75419;SDS011;63998;52.488;13.428;2023-08-17T03:51:37;6.85;;;2.75;;
75419;SDS011;63998;52.488;13.428;2023-08-17T03:54:02;3.13;;;2.10;;
75419;SDS011;63998;52.488;13.428;2023-08-17T03:56:28;3.15;;;2.17;;
75419;SDS011;63998;52.488;13.428;2023-08-17T03:58:53;3.30;;;2.00;;
75419;SDS011;63998;52.488;13.428;2023-08-17T04:01:19;3.47;;;2.30;;
75419;SDS011;63998;52.488;13.428;2023-08-17T04:03:45;3.53;;;2.10;;
75419;SDS011;63998;52.488;13.428;2023-08-17T04:06:10;2.77;;;2.27;;
75419;SDS011;63998;52.488;13.428;2023-08-17T04:08:36;7.97;;;5.57;;
75419;SDS011;63998;52.488;13.428;2023-08-17T04:11:02;3.20;;;2.55;;
75419;SDS011;63998;52.488;13.428;2023-08-17T04:13:28;8.75;;;4.82;;
75419;SDS011;63998;52.488;13.428;2023-08-17T04:15:54;5.83;;;3.53;;
75419;SDS011;63998;52.488;13.428;2023-08-17T04:18:19;3.85;;;2.33;;
75419;SDS011;63998;52.488;13.428;2023-08-17T04:20:44;2.53;;;2.10;;
75419;SDS011;63998;52.488;13.428;2023-08-17T04:23:10;5.50;;;2.23;;
75419;SDS011;63998;52.488;13.428;2023-08-17T04:25:35;2.33;;;2.13;;
75419;SDS011;63998;52.488;13.428;2023-08-17T04:28:01;4.40;;;2.17;;
75419;SDS011;63998;52.488;13.428;2023-08-17T04:30:26;6.43;;;2.30;;
75419;SDS011;63998;52.488;13.428;2023-08-17T04:32:51;4.00;;;2.55;;
75419;SDS011;63998;52.488;13.428;2023-08-17T04:35:18;4.35;;;2.58;;
75419;SDS011;63998;52.488;13.428;2023-08-17T04:37:44;4.43;;;2.40;;
75419;SDS011;63998;52.488;13.428;2023-08-17T04:40:09;4.60;;;2.30;;
75419;SDS011;63998;52.488;13.428;2023-08-17T04:42:35;5.07;;;2.40;;
75419;SDS011;63998;52.488;13.428;2023-08-17T04:45:00;4.25;;;2.50;;
75419;SDS011;63998;52.488;13.428;2023-08-17T04:47:26;3.10;;;2.23;;
75419;SDS011;63998;52.488;13.428;2023-08-17T04:49:51;4.82;;;2.30;;
75419;SDS011;63998;52.488;13.428;2023-08-17T04:52:16;3.73;;;2.37;;
75419;SDS011;63998;52.488;13.428;2023-08-17T04:54:42;4.45;;;2.00;;
75419;SDS011;63998;52.488;13.428;2023-08-17T04:57:07;4.10;;;2.60;;
75419;SDS011;63998;52.488;13.428;2023-08-17T04:59:32;4.83;;;3.17;;
75419;SDS011;63998;52.488;13.428;2023-08-17T05:01:58;4.43;;;2.40;;
75419;SDS011;63998;52.488;13.428;2023-08-17T05:04:23;2.93;;;2.13;;
75419;SDS011;63998;52.488;13.428;2023-08-17T05:06:48;2.97;;;1.90;;
75419;SDS011;63998;52.488;13.428;2023-08-17T05:09:14;3.50;;;2.50;;
75419;SDS011;63998;52.488;13.428;2023-08-17T05:11:39;3.22;;;2.20;;
75419;SDS011;63998;52.488;13.428;2023-08-17T05:14:04;7.17;;;4.73;;
75419;SDS011;63998;52.488;13.428;2023-08-17T05:16:30;4.10;;;2.80;;
75419;SDS011;63998;52.488;13.428;2023-08-17T05:18:55;2.80;;;2.17;;
75419;SDS011;63998;52.488;13.428;2023-08-17T05:21:22;6.85;;;2.83;;
75419;SDS011;63998;52.488;13.428;2023-08-17T05:23:48;5.47;;;3.25;;
75419;SDS011;63998;52.488;13.428;2023-08-17T05:26:13;8.18;;;4.45;;
75419;SDS011;63998;52.488;13.428;2023-08-17T05:28:38;6.70;;;4.23;;
75419;SDS011;63998;52.488;13.428;2023-08-17T05:31:06;4.13;;;2.67;;
75419;SDS011;63998;52.488;13.428;2023-08-17T05:33:32;6.57;;;4.60;;
75419;SDS011;63998;52.488;13.428;2023-08-17T05:35:57;4.03;;;2.83;;
75419;SDS011;63998;52.488;13.428;2023-08-17T05:38:23;4.45;;;2.17;;
75419;SDS011;63998;52.488;13.428;2023-08-17T05:40:53;4.75;;;2.40;;
75419;SDS011;63998;52.488;13.428;2023-08-17T05:43:24;3.05;;;2.40;;
75419;SDS011;63998;52.488;13.428;2023-08-17T05:45:50;2.58;;;1.85;;
75419;SDS011;63998;52.488;13.428;2023-08-17T05:48:20;4.95;;;2.70;;
75419;SDS011;63998;52.488;13.428;2023-08-17T05:50:48;7.50;;;4.78;;
75419;SDS011;63998;52.488;13.428;2023-08-17T05:53:13;5.37;;;2.97;;
75419;SDS011;63998;52.488;13.428;2023-08-17T05:55:39;3.63;;;2.50;;
75419;SDS011;63998;52.488;13.428;2023-08-17T05:58:04;5.13;;;2.58;;
75419;SDS011;63998;52.488;13.428;2023-08-17T06:00:30;4.43;;;2.50;;
75419;SDS011;63998;52.488;13.428;2023-08-17T06:02:55;3.65;;;2.30;;
75419;SDS011;63998;52.488;13.428;2023-08-17T06:05:26;4.25;;;2.60;;
75419;SDS011;63998;52.488;13.428;2023-08-17T06:07:52;3.75;;;2.60;;
75419;SDS011;63998;52.488;13.428;2023-08-17T06:10:17;4.72;;;2.67;;
75419;SDS011;63998;52.488;13.428;2023-08-17T06:12:42;3.75;;;2.50;;
75419;SDS011;63998;52.488;13.428;2023-08-17T06:15:08;4.67;;;2.37;;
75419;SDS011;63998;52.488;13.428;2023-08-17T06:17:34;4.28;;;2.60;;
75419;SDS011;63998;52.488;13.428;2023-08-17T06:19:59;3.97;;;2.75;;
75419;SDS011;63998;52.488;13.428;2023-08-17T06:22:25;4.77;;;2.90;;
75419;SDS011;63998;52.488;13.428;2023-08-17T06:24:50;5.80;;;3.13;;
75419;SDS011;63998;52.488;13.428;2023-08-17T06:27:15;7.28;;;4.50;;
75419;SDS011;63998;52.488;13.428;2023-08-17T06:29:41;9.32;;;2.80;;
75419;SDS011;63998;52.488;13.428;2023-08-17T06:32:06;4.93;;;2.87;;
75419;SDS011;63998;52.488;13.428;2023-08-17T06:34:31;3.50;;;2.10;;
75419;SDS011;63998;52.488;13.428;2023-08-17T06:36:57;5.70;;;2.70;;
75419;SDS011;63998;52.488;13.428;2023-08-17T06:39:24;4.20;;;2.50;;
75419;SDS011;63998;52.488;13.428;2023-08-17T06:41:49;3.70;;;2.28;;
75419;SDS011;63998;52.488;13.428;2023-08-17T06:44:15;5.43;;;2.77;;
75419;SDS011;63998;52.488;13.428;2023-08-17T06:46:40;7.22;;;2.63;;
75419;SDS011;63998;52.488;13.428;2023-08-17T06:49:05;5.27;;;2.40;;
75419;SDS011;63998;52.488;13.428;2023-08-17T06:51:31;5.03;;;2.60;;
75419;SDS011;63998;52.488;13.428;2023-08-17T06:53:56;2.97;;;2.47;;
75419;SDS011;63998;52.488;13.428;2023-08-17T06:56:21;4.97;;;3.07;;
75419;SDS011;63998;52.488;13.428;2023-08-17T06:58:47;5.97;;;2.55;;
75419;SDS011;63998;52.488;13.428;2023-08-17T07:01:13;4.47;;;2.50;;
75419;SDS011;63998;52.488;13.428;2023-08-17T07:03:39;6.50;;;3.95;;
75419;SDS011;63998;52.488;13.428;2023-08-17T07:06:05;3.95;;;2.83;;
75419;SDS011;63998;52.488;13.428;2023-08-17T07:08:30;5.25;;;3.75;;
75419;SDS011;63998;52.488;13.428;2023-08-17T07:10:55;6.85;;;5.05;;
75419;SDS011;63998;52.488;13.428;2023-08-17T07:13:21;6.77;;;4.47;;
75419;SDS011;63998;52.488;13.428;2023-08-17T07:15:46;7.85;;;4.03;;
75419;SDS011;63998;52.488;13.428;2023-08-17T07:18:12;11.77;;;7.97;;
75419;SDS011;63998;52.488;13.428;2023-08-17T07:20:37;5.67;;;3.60;;
75419;SDS011;63998;52.488;13.428;2023-08-17T07:23:02;4.43;;;3.67;;
75419;SDS011;63998;52.488;13.428;2023-08-17T07:25:28;4.03;;;2.30;;
75419;SDS011;63998;52.488;13.428;2023-08-17T07:27:53;4.13;;;2.90;;
75419;SDS011;63998;52.488;13.428;2023-08-17T07:30:19;2.75;;;2.42;;
75419;SDS011;63998;52.488;13.428;2023-08-17T07:32:44;4.82;;;2.90;;
75419;SDS011;63998;52.488;13.428;2023-08-17T07:35:09;3.92;;;2.72;;
75419;SDS011;63998;52.488;13.428;2023-08-17T07:37:35;3.95;;;3.05;;
75419;SDS011;63998;52.488;13.428;2023-08-17T07:40:01;5.15;;;2.97;;
75419;SDS011;63998;52.488;13.428;2023-08-17T07:42:28;4.13;;;3.15;;
75419;SDS011;63998;52.488;13.428;2023-08-17T07:44:54;2.80;;;2.33;;
75419;SDS011;63998;52.488;13.428;2023-08-17T07:47:19;3.70;;;3.00;;
75419;SDS011;63998;52.488;13.428;2023-08-17T07:49:44;6.27;;;4.67;;
75419;SDS011;63998;52.488;13.428;2023-08-17T07:52:09;5.10;;;3.30;;
75419;SDS011;63998;52.488;13.428;2023-08-17T07:54:35;6.33;;;3.87;;
75419;SDS011;63998;52.488;13.428;2023-08-17T07:57:00;6.00;;;3.28;;
75419;SDS011;63998;52.488;13.428;2023-08-17T07:59:28;5.55;;;3.33;;
75419;SDS011;63998;52.488;13.428;2023-08-17T08:01:53;4.65;;;2.75;;
75419;SDS011;63998;52.488;13.428;2023-08-17T08:04:19;2.90;;;2.60;;
75419;SDS011;63998;52.488;13.428;2023-08-17T08:06:45;3.67;;;2.60;;
75419;SDS011;63998;52.488;13.428;2023-08-17T08:09:11;7.88;;;3.45;;
75419;SDS011;63998;52.488;13.428;2023-08-17T08:11:37;6.43;;;4.10;;
75419;SDS011;63998;52.488;13.428;2023-08-17T08:14:02;6.50;;;4.03;;
75419;SDS011;63998;52.488;13.428;2023-08-17T08:16:28;6.97;;;4.03;;
75419;SDS011;63998;52.488;13.428;2023-08-17T08:18:56;5.45;;;3.83;;
75419;SDS011;63998;52.488;13.428;2023-08-17T08:21:22;5.57;;;2.60;;
75419;SDS011;63998;52.488;13.428;2023-08-17T08:23:47;5.65;;;2.95;;
75419;SDS011;63998;52.488;13.428;2023-08-17T08:26:12;6.22;;;2.72;;
75419;SDS011;63998;52.488;13.428;2023-08-17T08:28:38;2.90;;;2.20;;
75419;SDS011;63998;52.488;13.428;2023-08-17T08:31:04;3.97;;;2.88;;
75419;SDS011;63998;52.488;13.428;2023-08-17T08:33:29;5.10;;;2.60;;
75419;SDS011;63998;52.488;13.428;2023-08-17T08:35:55;4.28;;;2.78;;
75419;SDS011;63998;52.488;13.428;2023-08-17T08:38:20;5.15;;;2.63;;
75419;SDS011;63998;52.488;13.428;2023-08-17T08:40:46;6.00;;;3.00;;
75419;SDS011;63998;52.488;13.428;2023-08-17T08:43:12;5.28;;;3.58;;
75419;SDS011;63998;52.488;13.428;2023-08-17T08:45:38;5.32;;;3.10;;
75419;SDS011;63998;52.488;13.428;2023-08-17T08:48:07;6.65;;;3.25;;
75419;SDS011;63998;52.488;13.428;2023-08-17T08:50:34;4.63;;;3.22;;
75419;SDS011;63998;52.488;13.428;2023-08-17T08:53:01;4.50;;;3.10;;
75419;SDS011;63998;52.488;13.428;2023-08-17T08:55:30;4.05;;;3.08;;
75419;SDS011;63998;52.488;13.428;2023-08-17T08:58:01;5.72;;;2.97;;
75419;SDS011;63998;52.488;13.428;2023-08-17T09:00:28;3.92;;;3.00;;
75419;SDS011;63998;52.488;13.428;2023-08-17T09:02:55;3.88;;;3.10;;
75419;SDS011;63998;52.488;13.428;2023-08-17T09:05:21;6.93;;;4.40;;
75419;SDS011;63998;52.488;13.428;2023-08-17T09:07:48;6.00;;;3.92;;
75419;SDS011;63998;52.488;13.428;2023-08-17T09:10:14;5.70;;;3.70;;
75419;SDS011;63998;52.488;13.428;2023-08-17T09:12:41;6.00;;;3.75;;
75419;SDS011;63998;52.488;13.428;2023-08-17T09:15:07;11.68;;;6.88;;
75419;SDS011;63998;52.488;13.428;2023-08-17T09:17:33;9.30;;;5.63;;
75419;SDS011;63998;52.488;13.428;2023-08-17T09:19:59;5.43;;;4.47;;
75419;SDS011;63998;52.488;13.428;2023-08-17T09:22:25;4.18;;;3.63;;
75419;SDS011;63998;52.488;13.428;2023-08-17T09:25:02;6.30;;;3.30;;
75419;SDS011;63998;52.488;13.428;2023-08-17T09:27:28;5.57;;;3.05;;
75419;SDS011;63998;52.488;13.428;2023-08-17T09:30:00;4.77;;;3.27;;
75419;SDS011;63998;52.488;13.428;2023-08-17T09:32:30;8.45;;;4.80;;
75419;SDS011;63998;52.488;13.428;2023-08-17T09:34:56;7.53;;;5.03;;
75419;SDS011;63998;52.488;13.428;2023-08-17T09:37:21;17.30;;;9.00;;
75419;SDS011;63998;52.488;13.428;2023-08-17T09:39:47;8.83;;;6.50;;
75419;SDS011;63998;52.488;13.428;2023-08-17T09:42:13;9.75;;;7.35;;
75419;SDS011;63998;52.488;13.428;2023-08-17T09:44:40;7.32;;;5.40;;
75419;SDS011;63998;52.488;13.428;2023-08-17T09:47:07;6.45;;;4.13;;
75419;SDS011;63998;52.488;13.428;2023-08-17T09:49:32;5.43;;;3.78;;
75419;SDS011;63998;52.488;13.428;2023-08-17T09:52:00;7.05;;;3.80;;
75419;SDS011;63998;52.488;13.428;2023-08-17T09:54:30;4.32;;;3.75;;
75419;SDS011;63998;52.488;13.428;2023-08-17T09:56:56;4.40;;;3.50;;
75419;SDS011;63998;52.488;13.428;2023-08-17T09:59:23;5.78;;;3.35;;
75419;SDS011;63998;52.488;13.428;2023-08-17T10:01:49;4.20;;;3.78;;
75419;SDS011;63998;52.488;13.428;2023-08-17T10:04:16;4.43;;;3.63;;
75419;SDS011;63998;52.488;13.428;2023-08-17T10:06:56;11.07;;;6.20;;
75419;SDS011;63998;52.488;13.428;2023-08-17T10:09:25;5.85;;;3.80;;
75419;SDS011;63998;52.488;13.428;2023-08-17T10:11:57;13.80;;;9.32;;
75419;SDS011;63998;52.488;13.428;2023-08-17T10:14:29;8.23;;;5.70;;
75419;SDS011;63998;52.488;13.428;2023-08-17T10:17:02;7.85;;;5.40;;
75419;SDS011;63998;52.488;13.428;2023-08-17T10:19:44;5.93;;;4.93;;
75419;SDS011;63998;52.488;13.428;2023-08-17T10:24:58;6.40;;;4.25;;
75419;SDS011;63998;52.488;13.428;2023-08-17T10:27:26;5.93;;;4.10;;
75419;SDS011;63998;52.488;13.428;2023-08-17T10:29:52;6.97;;;4.60;;
75419;SDS011;63998;52.488;13.428;2023-08-17T10:32:17;6.13;;;4.25;;
75419;SDS011;63998;52.488;13.428;2023-08-17T10:34:46;6.50;;;4.40;;
75419;SDS011;63998;52.488;13.428;2023-08-17T10:37:12;5.93;;;4.10;;
75419;SDS011;63998;52.488;13.428;2023-08-17T10:39:44;6.28;;;4.18;;
75419;SDS011;63998;52.488;13.428;2023-08-17T10:42:10;6.10;;;4.07;;
75419;SDS011;63998;52.488;13.428;2023-08-17T10:49:59;10.02;;;6.18;;
75419;SDS011;63998;52.488;13.428;2023-08-17T10:52:32;6.00;;;4.32;;
75419;SDS011;63998;52.488;13.428;2023-08-17T10:55:01;5.30;;;4.15;;
75419;SDS011;63998;52.488;13.428;2023-08-17T10:57:31;4.53;;;3.72;;
75419;SDS011;63998;52.488;13.428;2023-08-17T11:02:38;5.63;;;3.42;;
75419;SDS011;63998;52.488;13.428;2023-08-17T11:05:04;10.02;;;6.47;;
75419;SDS011;63998;52.488;13.428;2023-08-17T11:07:43;4.28;;;3.88;;
75419;SDS011;63998;52.488;13.428;2023-08-17T11:10:26;6.63;;;4.22;;
75419;SDS011;63998;52.488;13.428;2023-08-17T11:12:54;4.47;;;3.90;;
75419;SDS011;63998;52.488;13.428;2023-08-17T11:15:37;12.40;;;6.03;;
75419;SDS011;63998;52.488;13.428;2023-08-17T11:18:07;9.32;;;5.20;;
75419;SDS011;63998;52.488;13.428;2023-08-17T11:20:33;5.22;;;4.40;;
75419;SDS011;63998;52.488;13.428;2023-08-17T11:22:59;4.88;;;4.10;;
75419;SDS011;63998;52.488;13.428;2023-08-17T11:25:25;8.50;;;7.45;;
75419;SDS011;63998;52.488;13.428;2023-08-17T11:27:52;5.65;;;4.05;;
75419;SDS011;63998;52.488;13.428;2023-08-17T11:30:18;7.18;;;4.10;;
75419;SDS011;63998;52.488;13.428;2023-08-17T11:32:43;6.78;;;4.40;;
75419;SDS011;63998;52.488;13.428;2023-08-17T11:35:09;7.10;;;6.07;;
75419;SDS011;63998;52.488;13.428;2023-08-17T11:37:34;4.47;;;4.07;;
75419;SDS011;63998;52.488;13.428;2023-08-17T11:39:59;6.65;;;4.00;;
75419;SDS011;63998;52.488;13.428;2023-08-17T11:42:25;5.63;;;4.00;;
75419;SDS011;63998;52.488;13.428;2023-08-17T11:44:50;4.88;;;4.20;;
75419;SDS011;63998;52.488;13.428;2023-08-17T11:47:15;16.48;;;11.27;;
75419;SDS011;63998;52.488;13.428;2023-08-17T11:49:41;14.25;;;10.15;;
75419;SDS011;63998;52.488;13.428;2023-08-17T11:52:08;6.47;;;5.80;;
75419;SDS011;63998;52.488;13.428;2023-08-17T11:54:39;7.05;;;6.10;;
75419;SDS011;63998;52.488;13.428;2023-08-17T11:57:05;6.72;;;5.43;;
75419;SDS011;63998;52.488;13.428;2023-08-17T11:59:30;5.13;;;4.40;;
75419;SDS011;63998;52.488;13.428;2023-08-17T12:01:57;5.20;;;4.18;;
75419;SDS011;63998;52.488;13.428;2023-08-17T12:04:23;5.93;;;4.28;;
75419;SDS011;63998;52.488;13.428;2023-08-17T12:06:49;5.90;;;5.15;;
75419;SDS011;63998;52.488;13.428;2023-08-17T12:09:14;15.43;;;8.65;;
75419;SDS011;63998;52.488;13.428;2023-08-17T12:11:40;5.63;;;4.75;;
75419;SDS011;63998;52.488;13.428;2023-08-17T12:14:11;4.85;;;4.15;;
75419;SDS011;63998;52.488;13.428;2023-08-17T12:16:46;4.90;;;4.10;;
75419;SDS011;63998;52.488;13.428;2023-08-17T12:19:13;9.65;;;4.68;;
75419;SDS011;63998;52.488;13.428;2023-08-17T12:21:40;4.25;;;3.78;;
75419;SDS011;63998;52.488;13.428;2023-08-17T12:24:08;23.58;;;12.20;;
75419;SDS011;63998;52.488;13.428;2023-08-17T12:26:34;9.77;;;5.20;;
75419;SDS011;63998;52.488;13.428;2023-08-17T12:29:00;10.65;;;6.60;;
75419;SDS011;63998;52.488;13.428;2023-08-17T12:31:30;6.82;;;4.47;;
75419;SDS011;63998;52.488;13.428;2023-08-17T12:33:55;6.80;;;4.35;;
75419;SDS011;63998;52.488;13.428;2023-08-17T12:36:20;5.80;;;3.90;;
75419;SDS011;63998;52.488;13.428;2023-08-17T12:38:46;7.82;;;4.68;;
75419;SDS011;63998;52.488;13.428;2023-08-17T12:41:13;6.78;;;5.05;;
75419;SDS011;63998;52.488;13.428;2023-08-17T12:43:38;6.22;;;5.00;;
75419;SDS011;63998;52.488;13.428;2023-08-17T12:46:04;6.63;;;4.97;;
75419;SDS011;63998;52.488;13.428;2023-08-17T12:48:29;6.20;;;4.40;;
75419;SDS011;63998;52.488;13.428;2023-08-17T12:50:55;9.27;;;5.95;;
75419;SDS011;63998;52.488;13.428;2023-08-17T12:53:21;5.43;;;4.07;;
75419;SDS011;63998;52.488;13.428;2023-08-17T12:55:46;5.07;;;4.60;;
75419;SDS011;63998;52.488;13.428;2023-08-17T12:58:12;7.88;;;5.50;;
75419;SDS011;63998;52.488;13.428;2023-08-17T13:00:37;5.07;;;4.20;;
75419;SDS011;63998;52.488;13.428;2023-08-17T13:03:02;5.68;;;4.45;;
75419;SDS011;63998;52.488;13.428;2023-08-17T13:05:28;7.25;;;4.45;;
75419;SDS011;63998;52.488;13.428;2023-08-17T13:07:53;5.43;;;4.53;;
75419;SDS011;63998;52.488;13.428;2023-08-17T13:10:19;7.50;;;4.93;;
75419;SDS011;63998;52.488;13.428;2023-08-17T13:12:44;6.68;;;5.55;;
75419;SDS011;63998;52.488;13.428;2023-08-17T13:15:12;7.00;;;6.18;;
75419;SDS011;63998;52.488;13.428;2023-08-17T13:17:37;7.22;;;4.53;;
75419;SDS011;63998;52.488;13.428;2023-08-17T13:20:03;6.57;;;5.90;;
75419;SDS011;63998;52.488;13.428;2023-08-17T13:22:30;6.00;;;4.15;;
75419;SDS011;63998;52.488;13.428;2023-08-17T13:24:56;6.32;;;5.13;;
75419;SDS011;63998;52.488;13.428;2023-08-17T13:27:21;5.83;;;5.23;;
75419;SDS011;63998;52.488;13.428;2023-08-17T13:29:46;9.27;;;6.07;;
75419;SDS011;63998;52.488;13.428;2023-08-17T13:32:12;7.15;;;4.78;;
75419;SDS011;63998;52.488;13.428;2023-08-17T13:34:37;5.73;;;4.80;;
75419;SDS011;63998;52.488;13.428;2023-08-17T13:37:02;7.53;;;4.40;;
75419;SDS011;63998;52.488;13.428;2023-08-17T13:39:28;5.50;;;4.57;;
75419;SDS011;63998;52.488;13.428;2023-08-17T13:41:53;4.63;;;4.13;;
75419;SDS011;63998;52.488;13.428;2023-08-17T13:44:18;6.47;;;4.20;;
75419;SDS011;63998;52.488;13.428;2023-08-17T13:46:44;4.83;;;4.33;;
75419;SDS011;63998;52.488;13.428;2023-08-17T13:49:09;4.53;;;3.88;;
75419;SDS011;63998;52.488;13.428;2023-08-17T13:51:34;4.53;;;4.17;;
75419;SDS011;63998;52.488;13.428;2023-08-17T13:54:00;5.72;;;4.50;;
75419;SDS011;63998;52.488;13.428;2023-08-17T13:56:25;6.25;;;5.50;;
75419;SDS011;63998;52.488;13.428;2023-08-17T13:58:50;8.93;;;5.82;;
75419;SDS011;63998;52.488;13.428;2023-08-17T14:01:16;7.22;;;4.10;;
75419;SDS011;63998;52.488;13.428;2023-08-17T14:03:42;7.93;;;4.22;;
75419;SDS011;63998;52.488;13.428;2023-08-17T14:06:07;6.43;;;4.82;;
75419;SDS011;63998;52.488;13.428;2023-08-17T14:08:33;6.93;;;5.43;;
75419;SDS011;63998;52.488;13.428;2023-08-17T14:10:58;5.32;;;4.82;;
75419;SDS011;63998;52.488;13.428;2023-08-17T14:13:25;5.50;;;4.75;;
75419;SDS011;63998;52.488;13.428;2023-08-17T14:15:50;4.50;;;4.03;;
75419;SDS011;63998;52.488;13.428;2023-08-17T14:18:16;4.50;;;3.63;;
75419;SDS011;63998;52.488;13.428;2023-08-17T14:20:41;4.80;;;3.90;;
75419;SDS011;63998;52.488;13.428;2023-08-17T14:23:06;5.40;;;4.13;;
75419;SDS011;63998;52.488;13.428;2023-08-17T14:25:32;7.90;;;5.38;;
75419;SDS011;63998;52.488;13.428;2023-08-17T14:27:57;6.60;;;4.97;;
75419;SDS011;63998;52.488;13.428;2023-08-17T14:30:24;4.28;;;3.88;;
75419;SDS011;63998;52.488;13.428;2023-08-17T14:32:50;5.13;;;4.50;;
75419;SDS011;63998;52.488;13.428;2023-08-17T14:35:15;4.93;;;4.40;;
75419;SDS011;63998;52.488;13.428;2023-08-17T14:37:41;6.32;;;4.85;;
75419;SDS011;63998;52.488;13.428;2023-08-17T14:40:06;6.97;;;6.17;;
75419;SDS011;63998;52.488;13.428;2023-08-17T14:42:32;6.80;;;4.88;;